Westerville, OH (43082)

7:25 PM EST on February 05, 2016 (GMT -0500)
Boyer Nature Preserve | | Change Station
CLOSE
Current Station
Personal Weather Station
Location: Westerville, OH
Elevation: 889 ft
Nearby Weather Stations

Elev 889 ft 40.12 °N, 82.92 °W | Updated 2 minutes ago

Mostly Cloudy
Mostly Cloudy
32.0 °F
Feels Like 32 °F
N
0.0
Wind Variable Wind from SSW

Today
High -- | Low -- °F
--% Chance of Precip.
Yesterday
High -- | Low -- °F
Precip. -- in
Pressure 30.39 in
Visibility 10.0 miles
Clouds Mostly Cloudy 6500 ft
Windchill 32 °F
Dew Point 23 °F
Humidity 68%
Rainfall 0.00 in
Snow Depth Not available.
7:36 AM 5:54 PM
Waning Crescent, 8% visible
METAR KOSU 052353Z 18005KT 10SM BKN065 02/M08 A3036 RMK AO2 SLP290 T00221078 10039 20011 51004
Pressure 30.39 in
Visibility 10.0 miles
Clouds Mostly Cloudy 6500 ft
Windchill 32 °F
Dew Point 23 °F
Humidity 68%
Rainfall 0.00 in
Snow Depth Not available.
7:36 AM 5:54 PM
Waning Crescent, 8% visible
METAR KOSU 052353Z 18005KT 10SM BKN065 02/M08 A3036 RMK AO2 SLP290 T00221078 10039 20011 51004

10-Day Weather Forecast

Almanac

Astronomy

Feb. 05, 2016 Rise Set
Actual Time
Civil Twilight
Nautical Twilight
Astronomical Twilight
Moon
Length of Visible Light
Length of Day
Tomorrow will be .
, % of the Moon is Illuminated

Today's Extremes

State Highs State Lows

Community

WunderPhotos

Upload Photos

1,890,897 photos uploaded!

WunderBlog® & News

Nearby

Air Quality

  Air Quality AQ Index Pollutant
Not available.

Snow Depth

Station Depth Elevation

Earthquake Activity

City Distance Mag. Time & Date
Minimum magnitude displayed is 2.5.

Coastal Water Temperatures

Place Temperature

Stations

Nearby Weather Stations

Station Location Temp. Windchill Dew Point Humidity Wind Precip. Elev Updated Type
                   

Watches & Warnings

There are currently no watches in effect.